Petersburgh, New York
Current Conditions -  °F | °C
As of 7:52 AM on Monday 22 Dec 2014 (Local Time) from KAQW Reporting Station
Haze Haze  
Wind Chill: -2°   Ceiling: 1900
Heat Index: -2°   Visibility: 3mi
Dew Point: -3°   Wind: 3mph
Humidity: 92%   Direction: 10°N
Pressure: 30.34"   Gusts: NA
Location:  42.7192°N, 73.3641°W
Report Text: KAQW 221252Z AUTO 01003KT 3SM BR OVC019 M02/M03 A3034 RMK AO2 SNE1157 SLP282 P0000 T10171028
Loading
Personal Weather Stations






























Interactive Weather Map New forecast layout! Learn more

10-Day Weather Forecast

Advertisements
Track Severe Weather on mobile